Погода Старый Мачимна 2 недели

Пензенская область, Россия

27 мая-09 июня
  • 27мая
    Сегодня
    +4°
    +20°
    Ясно и безоблачно
    ВремяПогодаТемператураВлажностьДавлениеВетер, м/сВероятность осадков
    00:00Ясно и безоблачно+11°C63 %749 мм3.8 м/с2 %
    03:00Ясно и безоблачно+8°C65 %750 мм3.1 м/с2 %
    06:00Ясно и безоблачно+9°C65 %752 мм2.6 м/с2 %
    09:00Ясно и безоблачно+15°C43 %753 мм3.4 м/с2 %
    12:00Ясно и безоблачно+18°C40 %753 мм2.8 м/с2 %
    15:00Ясно и безоблачно+20°C38 %752 мм2.8 м/с2 %
    18:00Ясно и безоблачно+19°C41 %752 мм2.2 м/с2 %
    21:00Ясно и безоблачно+13°C62 %752 мм2.1 м/с2 %
  • 28мая
    Вторник
    +8°
    +22°
    Ясно и безоблачно
    ВремяПогодаТемператураВлажностьДавлениеВетер, м/сВероятность осадков
    00:00Ясно и безоблачно+8°C61 %752 мм2.6 м/с2 %
    03:00Ясно и безоблачно+5°C71 %753 мм2.2 м/с2 %
    06:00Ясно и безоблачно+9°C64 %753 мм1.1 м/с2 %
    09:00Ясно и безоблачно+17°C43 %753 мм0.8 м/с2 %
    12:00Ясно и безоблачно+20°C40 %752 мм0.5 м/с2 %
    15:00Ясно и безоблачно+21°C38 %751 мм0.6 м/с2 %
    18:00Ясно и безоблачно+22°C40 %750 мм1.3 м/с2 %
    21:00Ясно и безоблачно+18°C45 %749 мм0.7 м/с2 %
  • 29мая
    Среда
    +11°
    +25°
    Ясно и безоблачно
    ВремяПогодаТемператураВлажностьДавлениеВетер, м/сВероятность осадков
    00:00Ясно и безоблачно+11°C66 %748 мм2.5 м/с2 %
    03:00Ясно и безоблачно+9°C66 %748 мм2.2 м/с2 %
    06:00Ясно и безоблачно+12°C64 %747 мм1.6 м/с2 %
    09:00Ясно и безоблачно+20°C43 %748 мм1.5 м/с2 %
    12:00Ясно и безоблачно+23°C34 %747 мм1.5 м/с2 %
    15:00Ясно и безоблачно+25°C32 %746 мм1.2 м/с2 %
    18:00Ясно и безоблачно+24°C44 %745 мм0.8 м/с2 %
    21:00Ясно и безоблачно+21°C43 %745 мм0.2 м/с2 %
  • 30мая
    Четверг
    +10°
    +27°
    Ясно и безоблачно
    ВремяПогодаТемператураВлажностьДавлениеВетер, м/сВероятность осадков
    00:00Ясно и безоблачно+13°C67 %744 мм2.0 м/с2 %
    03:00Ясно и безоблачно+11°C68 %744 мм2.3 м/с2 %
    06:00Облачно с прояснениями+14°C68 %744 мм0.4 м/с2 %
    09:00Облачно с прояснениями+22°C43 %745 мм0.3 м/с2 %
    12:00Ясно и безоблачно+25°C32 %745 мм0.8 м/с2 %
    15:00Ясно и безоблачно+27°C31 %744 мм1.4 м/с2 %
    18:00Ясно и безоблачно+26°C40 %743 мм1.2 м/с2 %
    21:00Ясно и безоблачно+22°C42 %744 мм1.5 м/с2 %
  • 31мая
    Пятница
    +12°
    +29°
    Ясно и безоблачно
    ВремяПогодаТемператураВлажностьДавлениеВетер, м/сВероятность осадков
    00:00Ясно и безоблачно+14°C70 %743 мм2.1 м/с2 %
    03:00Ясно и безоблачно+11°C76 %743 мм1.8 м/с3 %
    06:00Ясно и безоблачно+16°C64 %744 мм1.7 м/с2 %
    09:00Ясно и безоблачно+24°C40 %744 мм0.6 м/с2 %
    12:00Ясно и безоблачно+28°C28 %744 мм1.1 м/с11 %
    15:00Ясно и безоблачно+29°C27 %744 мм1.1 м/с15 %
    18:00Ясно и безоблачно+28°C42 %743 мм0.8 м/с15 %
    21:00Ясно и безоблачно+22°C52 %744 мм1.7 м/с5 %
Мы используем cookies
Соглашаюсь